Time;durP1;ratioP1;P1;durP2;ratioP2;P2;SDS_P1;SDS_P2;PMS_P1;PMS_P2;Temp;Humidity;BMP_temperature;BMP_pressure;BME280_temperature;BME280_humidity;BME280_pressure;Samples;Min_cycle;Max_cycle;Signal;HPM_P1;HPM_P2
2021/01/09 00:01:40;;;;;;;12.82;6.70;;;;;;;;;;5084896;28;20035;-51
2021/01/09 00:04:07;;;;;;;12.10;6.72;;;;;;;;;;5083567;28;20456;-50
2021/01/09 00:06:37;;;;;;;12.43;6.80;;;;;;;;;;5084563;28;20020;-48
2021/01/09 00:09:03;;;;;;;9.85;6.40;;;;;;;;;;5084545;28;20427;-47
2021/01/09 00:11:31;;;;;;;13.38;7.82;;;;;;;;;;5084330;28;20028;-48
2021/01/09 00:13:57;;;;;;;13.13;6.43;;;;;;;;;;5083661;28;20522;-50
2021/01/09 00:16:23;;;;;;;12.95;7.30;;;;;;;;;;5084089;28;20028;-47
2021/01/09 00:18:49;;;;;;;11.73;6.30;;;;;;;;;;5083239;28;20418;-48
2021/01/09 00:21:15;;;;;;;17.85;7.70;;;;;;;;;;5084823;28;20492;-47
2021/01/09 00:23:41;;;;;;;12.40;6.80;;;;;;;;;;5076626;28;20024;-47
2021/01/09 00:26:08;;;;;;;14.00;7.28;;;;;;;;;;5063983;28;20055;-50
2021/01/09 00:28:35;;;;;;;9.93;6.03;;;;;;;;;;5063546;28;20024;-48
2021/01/09 00:31:01;;;;;;;10.05;5.90;;;;;;;;;;5064422;28;20028;-48
2021/01/09 00:33:27;;;;;;;10.23;5.25;;;;;;;;;;5074018;28;20042;-47
2021/01/09 00:35:56;;;;;;;9.40;5.53;;;;;;;;;;5065941;28;20064;-50
2021/01/09 00:38:23;;;;;;;10.65;5.40;;;;;;;;;;5064183;28;20414;-49
2021/01/09 00:40:49;;;;;;;9.25;5.22;;;;;;;;;;5064598;28;20443;-52
2021/01/09 00:43:15;;;;;;;9.48;5.07;;;;;;;;;;5064526;28;20024;-49
2021/01/09 00:45:43;;;;;;;11.02;5.68;;;;;;;;;;5064292;28;20040;-51
2021/01/09 00:48:09;;;;;;;8.20;5.10;;;;;;;;;;5063748;28;20078;-48
2021/01/09 00:50:35;;;;;;;8.82;5.20;;;;;;;;;;5063878;28;20031;-48
2021/01/09 00:53:01;;;;;;;9.63;5.88;;;;;;;;;;5064468;28;20021;-48
2021/01/09 00:55:27;;;;;;;13.75;5.70;;;;;;;;;;5064017;28;20451;-51
2021/01/09 00:57:54;;;;;;;9.73;5.38;;;;;;;;;;5063840;28;20028;-49
2021/01/09 01:00:20;;;;;;;7.65;4.57;;;;;;;;;;5064069;28;20028;-49
2021/01/09 01:02:46;;;;;;;8.63;5.15;;;;;;;;;;5064726;28;20103;-50
2021/01/09 01:05:12;;;;;;;9.52;5.50;;;;;;;;;;5063725;28;20032;-47
2021/01/09 01:07:38;;;;;;;8.77;5.18;;;;;;;;;;5064101;28;20404;-52
2021/01/09 01:10:05;;;;;;;13.75;6.20;;;;;;;;;;5064147;28;20229;-50
2021/01/09 01:12:31;;;;;;;10.15;5.72;;;;;;;;;;5063960;28;20032;-51
2021/01/09 01:14:57;;;;;;;10.70;5.38;;;;;;;;;;5063563;28;20285;-51
2021/01/09 01:17:23;;;;;;;12.10;5.57;;;;;;;;;;5063572;28;20033;-50
2021/01/09 01:19:49;;;;;;;9.18;5.38;;;;;;;;;;5063910;28;20020;-49
2021/01/09 01:22:15;;;;;;;8.77;5.00;;;;;;;;;;5064364;28;20024;-48
2021/01/09 01:24:41;;;;;;;7.55;4.57;;;;;;;;;;5063947;28;20098;-52
2021/01/09 01:27:08;;;;;;;7.40;4.50;;;;;;;;;;5063650;28;20028;-48
2021/01/09 01:29:34;;;;;;;9.55;4.78;;;;;;;;;;5063872;28;20056;-47
2021/01/09 01:32:00;;;;;;;11.32;6.25;;;;;;;;;;5063938;28;20317;-49
2021/01/09 01:34:27;;;;;;;11.23;6.20;;;;;;;;;;5063575;28;20031;-49
2021/01/09 01:36:53;;;;;;;9.77;5.68;;;;;;;;;;5064266;28;20027;-49
2021/01/09 01:39:19;;;;;;;10.13;5.38;;;;;;;;;;5063354;28;20036;-47
2021/01/09 01:41:46;;;;;;;8.50;5.10;;;;;;;;;;5064529;28;20033;-50
2021/01/09 01:44:12;;;;;;;9.05;5.75;;;;;;;;;;5064136;28;20089;-53
2021/01/09 01:46:38;;;;;;;9.63;4.97;;;;;;;;;;5063391;28;20044;-49
2021/01/09 01:49:06;;;;;;;8.98;5.18;;;;;;;;;;5063442;28;20095;-49
2021/01/09 01:51:33;;;;;;;10.73;5.63;;;;;;;;;;5064121;28;20039;-50
2021/01/09 01:53:59;;;;;;;9.02;4.88;;;;;;;;;;5063544;28;20036;-49
2021/01/09 01:56:26;;;;;;;10.00;6.10;;;;;;;;;;5063350;28;20241;-51
2021/01/09 01:58:53;;;;;;;10.63;5.93;;;;;;;;;;5063670;28;20120;-52
2021/01/09 02:01:20;;;;;;;11.65;6.70;;;;;;;;;;5066227;28;20030;-50
2021/01/09 02:03:46;;;;;;;10.60;6.50;;;;;;;;;;5067883;28;20020;-52
2021/01/09 02:06:21;;;;;;;9.18;5.45;;;;;;;;;;5066981;28;20035;-50
2021/01/09 02:09:02;;;;;;;8.88;4.95;;;;;;;;;;5066115;28;20751;-47
2021/01/09 02:11:49;;;;;;;9.18;5.47;;;;;;;;;;5067125;28;20025;-48
2021/01/09 02:14:44;;;;;;;8.80;4.88;;;;;;;;;;5065554;28;20509;-49
2021/01/09 02:17:11;;;;;;;10.40;5.20;;;;;;;;;;5066150;28;20032;-47
2021/01/09 02:19:41;;;;;;;9.52;5.63;;;;;;;;;;5066833;28;20029;-48
2021/01/09 02:22:09;;;;;;;10.57;5.50;;;;;;;;;;5066004;28;20020;-49
2021/01/09 02:24:35;;;;;;;8.55;5.05;;;;;;;;;;5066825;28;20518;-49
2021/01/09 02:27:05;;;;;;;9.43;5.00;;;;;;;;;;5066842;28;20029;-47
2021/01/09 02:29:33;;;;;;;8.98;4.88;;;;;;;;;;5066708;28;20063;-52
2021/01/09 02:32:03;;;;;;;9.65;5.78;;;;;;;;;;5066827;28;20074;-51
2021/01/09 02:34:43;;;;;;;8.65;4.78;;;;;;;;;;5066680;28;20036;-50
2021/01/09 02:37:09;;;;;;;8.85;5.38;;;;;;;;;;5066208;28;20029;-49
2021/01/09 02:39:35;;;;;;;9.68;5.25;;;;;;;;;;5066558;28;20418;-50
2021/01/09 02:42:01;;;;;;;10.57;5.50;;;;;;;;;;5066548;28;20050;-49
2021/01/09 02:44:28;;;;;;;9.63;5.30;;;;;;;;;;5066179;28;20043;-50
2021/01/09 02:46:55;;;;;;;8.57;5.18;;;;;;;;;;5066823;28;20508;-51
2021/01/09 02:49:21;;;;;;;9.20;5.18;;;;;;;;;;5066086;28;20028;-49
2021/01/09 02:51:47;;;;;;;11.20;6.57;;;;;;;;;;5067314;28;20028;-47
2021/01/09 02:54:13;;;;;;;12.85;6.25;;;;;;;;;;5065971;28;20422;-48
2021/01/09 02:56:39;;;;;;;10.10;5.90;;;;;;;;;;5066629;28;20025;-47
2021/01/09 02:59:05;;;;;;;9.82;5.40;;;;;;;;;;5066213;28;20460;-47
2021/01/09 03:01:32;;;;;;;8.38;5.10;;;;;;;;;;5066159;28;20044;-48
2021/01/09 03:03:58;;;;;;;9.80;5.20;;;;;;;;;;5065993;28;20031;-49
2021/01/09 03:06:24;;;;;;;11.90;5.40;;;;;;;;;;5065744;28;20445;-51
2021/01/09 03:08:51;;;;;;;9.90;5.25;;;;;;;;;;5066016;28;20024;-49
2021/01/09 03:11:18;;;;;;;11.63;6.20;;;;;;;;;;5066419;28;20196;-50
2021/01/09 03:13:46;;;;;;;14.38;6.57;;;;;;;;;;5066438;28;20032;-49
2021/01/09 03:16:12;;;;;;;20.58;9.32;;;;;;;;;;5064447;28;20545;-51
2021/01/09 03:18:38;;;;;;;19.33;8.52;;;;;;;;;;5065570;28;20991;-49
2021/01/09 03:21:04;;;;;;;18.13;8.13;;;;;;;;;;5066071;28;20028;-48
2021/01/09 03:23:31;;;;;;;15.90;7.78;;;;;;;;;;5065643;28;20043;-48
2021/01/09 03:25:57;;;;;;;16.48;7.82;;;;;;;;;;5065687;28;20017;-47
2021/01/09 03:28:24;;;;;;;13.32;7.55;;;;;;;;;;5065420;28;20491;-50
2021/01/09 03:30:51;;;;;;;12.68;7.18;;;;;;;;;;5065753;28;20506;-48
2021/01/09 03:33:17;;;;;;;11.50;6.75;;;;;;;;;;5065754;28;20042;-49
2021/01/09 03:35:43;;;;;;;14.48;7.20;;;;;;;;;;5064708;28;20331;-48
2021/01/09 03:38:09;;;;;;;12.70;6.97;;;;;;;;;;5065204;28;20107;-49
2021/01/09 03:40:35;;;;;;;12.23;6.55;;;;;;;;;;5065518;28;20130;-51
2021/01/09 03:43:01;;;;;;;13.15;6.93;;;;;;;;;;5065214;28;20090;-48
2021/01/09 03:45:28;;;;;;;13.90;6.85;;;;;;;;;;5065072;28;20028;-50
2021/01/09 03:47:54;;;;;;;12.57;6.97;;;;;;;;;;5065162;28;20024;-48
2021/01/09 03:50:21;;;;;;;10.57;6.38;;;;;;;;;;5065486;28;20421;-50
2021/01/09 03:52:47;;;;;;;9.00;5.47;;;;;;;;;;5065863;28;20028;-48
2021/01/09 03:55:14;;;;;;;12.45;6.50;;;;;;;;;;5065492;28;20115;-52
2021/01/09 03:57:40;;;;;;;9.57;5.25;;;;;;;;;;5065139;28;20032;-52
2021/01/09 04:00:07;;;;;;;10.30;6.18;;;;;;;;;;5065025;28;20032;-47
2021/01/09 04:02:33;;;;;;;9.35;5.80;;;;;;;;;;5065142;28;20405;-52
2021/01/09 04:05:00;;;;;;;11.82;6.05;;;;;;;;;;5065042;28;20028;-52
2021/01/09 04:07:28;;;;;;;10.40;5.50;;;;;;;;;;5064579;28;20095;-49
2021/01/09 04:09:54;;;;;;;7.25;4.90;;;;;;;;;;5064833;28;20035;-46
2021/01/09 04:12:20;;;;;;;10.98;5.93;;;;;;;;;;5064797;28;20063;-45
2021/01/09 04:14:46;;;;;;;10.65;6.03;;;;;;;;;;5064904;28;20312;-44
2021/01/09 04:17:12;;;;;;;8.77;5.07;;;;;;;;;;5064062;28;20036;-46
2021/01/09 04:19:38;;;;;;;9.25;4.90;;;;;;;;;;5064588;28;20028;-45
2021/01/09 04:22:03;;;;;;;10.18;5.60;;;;;;;;;;5064532;28;20401;-46
2021/01/09 04:24:29;;;;;;;9.10;5.35;;;;;;;;;;5064120;28;20025;-46
2021/01/09 04:26:56;;;;;;;9.60;5.15;;;;;;;;;;5064499;28;20100;-45
2021/01/09 04:29:22;;;;;;;8.60;5.28;;;;;;;;;;5064378;28;20024;-45
2021/01/09 04:31:49;;;;;;;12.35;6.05;;;;;;;;;;5064533;28;20024;-45
2021/01/09 04:34:15;;;;;;;9.80;5.63;;;;;;;;;;5064869;28;20028;-45
2021/01/09 04:36:41;;;;;;;10.32;5.72;;;;;;;;;;5064801;28;20335;-46
2021/01/09 04:39:07;;;;;;;10.88;6.10;;;;;;;;;;5064014;28;20414;-47
2021/01/09 04:41:34;;;;;;;12.02;6.55;;;;;;;;;;5064498;28;20431;-46
2021/01/09 04:44:01;;;;;;;13.68;7.00;;;;;;;;;;5064315;28;20066;-45
2021/01/09 04:46:28;;;;;;;11.43;6.65;;;;;;;;;;5063827;28;20029;-49
2021/01/09 04:48:54;;;;;;;9.40;5.63;;;;;;;;;;5063916;28;20458;-45
2021/01/09 04:51:20;;;;;;;10.93;6.03;;;;;;;;;;5064086;28;20395;-45
2021/01/09 04:53:47;;;;;;;10.48;5.65;;;;;;;;;;5064972;28;20438;-45
2021/01/09 04:56:14;;;;;;;10.93;5.97;;;;;;;;;;5064819;28;20063;-47
2021/01/09 04:58:40;;;;;;;8.23;4.80;;;;;;;;;;5064135;28;20063;-46
2021/01/09 05:01:06;;;;;;;9.23;4.80;;;;;;;;;;5063557;28;20109;-49
2021/01/09 05:03:34;;;;;;;10.15;5.22;;;;;;;;;;5064106;28;20036;-45
2021/01/09 05:06:00;;;;;;;8.07;5.00;;;;;;;;;;5063920;28;20043;-46
2021/01/09 05:08:26;;;;;;;8.23;4.88;;;;;;;;;;5063958;28;20037;-47
2021/01/09 05:10:53;;;;;;;7.68;4.85;;;;;;;;;;5064308;28;20037;-48
2021/01/09 05:13:21;;;;;;;9.18;5.43;;;;;;;;;;5063279;28;20021;-47
2021/01/09 05:15:48;;;;;;;7.80;4.95;;;;;;;;;;5064349;28;20028;-46
2021/01/09 05:18:14;;;;;;;10.20;5.78;;;;;;;;;;5064079;28;20025;-47
2021/01/09 05:20:43;;;;;;;12.52;6.53;;;;;;;;;;5063949;28;20028;-49
2021/01/09 05:23:10;;;;;;;12.20;6.85;;;;;;;;;;5063659;28;20122;-50
2021/01/09 05:25:37;;;;;;;13.15;7.20;;;;;;;;;;5064141;28;20039;-49
2021/01/09 05:28:05;;;;;;;14.45;7.57;;;;;;;;;;5063742;28;20031;-48
2021/01/09 05:30:32;;;;;;;11.02;6.85;;;;;;;;;;5064237;28;20245;-47
2021/01/09 05:33:02;;;;;;;11.65;6.50;;;;;;;;;;5063583;28;20031;-50
2021/01/09 05:35:31;;;;;;;12.07;7.20;;;;;;;;;;5065428;28;20449;-48
2021/01/09 05:37:58;;;;;;;12.68;7.32;;;;;;;;;;5067670;28;20034;-49
2021/01/09 05:40:25;;;;;;;17.27;9.75;;;;;;;;;;5066167;28;20499;-49
2021/01/09 05:42:51;;;;;;;17.23;10.65;;;;;;;;;;5067482;28;20036;-46
2021/01/09 05:45:18;;;;;;;19.70;11.75;;;;;;;;;;5067813;28;20052;-48
2021/01/09 05:47:45;;;;;;;17.77;10.27;;;;;;;;;;5067952;28;20031;-48
2021/01/09 05:50:11;;;;;;;14.90;9.10;;;;;;;;;;5067462;28;20028;-49
2021/01/09 05:52:40;;;;;;;16.90;9.35;;;;;;;;;;5067537;28;20082;-47
2021/01/09 05:55:08;;;;;;;16.88;9.50;;;;;;;;;;5067327;28;20025;-48
2021/01/09 05:57:36;;;;;;;13.85;7.85;;;;;;;;;;5067176;28;20031;-47
2021/01/09 06:00:07;;;;;;;14.82;8.63;;;;;;;;;;5065889;28;20509;-47
2021/01/09 06:02:53;;;;;;;15.18;8.95;;;;;;;;;;5066245;28;20024;-48
2021/01/09 06:05:21;;;;;;;16.20;8.93;;;;;;;;;;5066371;28;20086;-50
2021/01/09 06:07:48;;;;;;;14.48;9.27;;;;;;;;;;5067702;28;20021;-51
2021/01/09 06:10:16;;;;;;;17.08;9.38;;;;;;;;;;5067392;28;20024;-48
2021/01/09 06:12:54;;;;;;;12.82;8.50;;;;;;;;;;5066024;28;20426;-47
2021/01/09 06:15:23;;;;;;;12.88;7.30;;;;;;;;;;5066257;28;20112;-47
2021/01/09 06:17:52;;;;;;;12.52;6.97;;;;;;;;;;5066855;28;20406;-47
2021/01/09 06:20:19;;;;;;;12.45;6.85;;;;;;;;;;5067032;28;20086;-47
2021/01/09 06:22:45;;;;;;;10.07;5.80;;;;;;;;;;5068033;28;20129;-46
2021/01/09 06:25:11;;;;;;;12.35;7.10;;;;;;;;;;5077331;28;20016;-46
2021/01/09 06:27:40;;;;;;;11.75;6.53;;;;;;;;;;5087719;28;20024;-46
2021/01/09 06:30:09;;;;;;;11.57;6.75;;;;;;;;;;5088419;28;20028;-50
2021/01/09 06:32:40;;;;;;;11.80;7.03;;;;;;;;;;5088872;28;20504;-48
2021/01/09 06:35:08;;;;;;;11.50;6.57;;;;;;;;;;5088133;28;20028;-49
2021/01/09 06:37:34;;;;;;;12.82;6.38;;;;;;;;;;5088505;28;20093;-46
2021/01/09 06:40:00;;;;;;;19.13;8.70;;;;;;;;;;5087283;28;20347;-50
2021/01/09 06:42:26;;;;;;;26.13;10.80;;;;;;;;;;5087320;28;20056;-47
2021/01/09 06:44:53;;;;;;;26.38;10.02;;;;;;;;;;5088223;28;20043;-48
2021/01/09 06:47:29;;;;;;;28.30;11.07;;;;;;;;;;5087632;28;20073;-51
2021/01/09 06:49:55;;;;;;;47.55;16.02;;;;;;;;;;5088407;28;20028;-49
2021/01/09 06:52:23;;;;;;;36.53;14.40;;;;;;;;;;5088309;28;20031;-47
2021/01/09 06:54:49;;;;;;;31.80;11.98;;;;;;;;;;5088345;28;20024;-54
2021/01/09 06:57:16;;;;;;;25.17;10.07;;;;;;;;;;5088805;28;20028;-51
2021/01/09 06:59:43;;;;;;;21.33;8.80;;;;;;;;;;5087909;28;20035;-50
2021/01/09 07:02:19;;;;;;;15.35;7.95;;;;;;;;;;5087600;28;20080;-52
2021/01/09 07:04:48;;;;;;;19.70;9.23;;;;;;;;;;5088540;28;20061;-49
2021/01/09 07:07:24;;;;;;;16.63;8.40;;;;;;;;;;5087303;28;20770;-50
2021/01/09 07:09:50;;;;;;;10.77;6.13;;;;;;;;;;5088205;28;20058;-48
2021/01/09 07:12:17;;;;;;;10.90;6.63;;;;;;;;;;5088434;28;20032;-49
2021/01/09 07:14:44;;;;;;;14.60;7.25;;;;;;;;;;5087968;28;20027;-51
2021/01/09 07:17:13;;;;;;;11.05;6.50;;;;;;;;;;5086404;28;20039;-49
2021/01/09 07:19:41;;;;;;;10.57;6.22;;;;;;;;;;5086146;28;20043;-46
2021/01/09 07:22:09;;;;;;;11.48;5.95;;;;;;;;;;5085785;28;20098;-51
2021/01/09 07:24:38;;;;;;;11.07;6.38;;;;;;;;;;5085688;28;20035;-50
2021/01/09 07:27:06;;;;;;;11.45;6.95;;;;;;;;;;5085853;28;20095;-47
2021/01/09 07:29:39;;;;;;;13.10;7.65;;;;;;;;;;5082464;28;20044;-49
2021/01/09 07:32:05;;;;;;;14.55;8.10;;;;;;;;;;5084058;28;20036;-48
2021/01/09 07:34:33;;;;;;;17.30;8.68;;;;;;;;;;5087580;28;20100;-51
2021/01/09 07:37:00;;;;;;;14.82;7.70;;;;;;;;;;5081189;28;20073;-49
2021/01/09 07:39:26;;;;;;;14.18;7.68;;;;;;;;;;5069479;28;20422;-50
2021/01/09 07:41:52;;;;;;;11.77;6.90;;;;;;;;;;5082631;28;20032;-50
2021/01/09 07:44:20;;;;;;;12.23;6.10;;;;;;;;;;5086317;28;20017;-49
2021/01/09 07:47:05;;;;;;;10.13;6.07;;;;;;;;;;5087415;28;20034;-47
2021/01/09 07:49:32;;;;;;;11.60;6.70;;;;;;;;;;5087082;28;20066;-51
2021/01/09 07:52:02;;;;;;;12.30;7.32;;;;;;;;;;5070281;28;20064;-50
2021/01/09 07:54:28;;;;;;;17.80;8.63;;;;;;;;;;5080405;28;20032;-51
2021/01/09 07:56:55;;;;;;;14.52;8.02;;;;;;;;;;5079982;28;20077;-50
2021/01/09 07:59:21;;;;;;;16.40;8.05;;;;;;;;;;5083088;28;20059;-48
2021/01/09 08:01:47;;;;;;;11.95;6.88;;;;;;;;;;5088009;28;20028;-50
2021/01/09 08:04:13;;;;;;;14.80;6.97;;;;;;;;;;5087020;28;20375;-52
2021/01/09 08:06:40;;;;;;;12.90;6.65;;;;;;;;;;5087525;28;20027;-53
2021/01/09 08:09:07;;;;;;;12.45;6.70;;;;;;;;;;5087449;28;20032;-52
2021/01/09 08:11:40;;;;;;;11.95;6.72;;;;;;;;;;5087582;28;20031;-48
2021/01/09 08:14:06;;;;;;;16.73;8.03;;;;;;;;;;5086677;28;20020;-48
2021/01/09 08:16:32;;;;;;;14.55;8.27;;;;;;;;;;5085486;28;20592;-49
2021/01/09 08:19:18;;;;;;;14.52;7.47;;;;;;;;;;5086212;28;20074;-47
2021/01/09 08:21:47;;;;;;;13.02;7.15;;;;;;;;;;5087997;28;20444;-48
2021/01/09 08:24:27;;;;;;;15.93;8.00;;;;;;;;;;5087909;28;20016;-47
2021/01/09 08:26:53;;;;;;;22.02;9.27;;;;;;;;;;5084662;28;20432;-48
2021/01/09 08:29:23;;;;;;;16.27;7.82;;;;;;;;;;5086898;28;20046;-47
2021/01/09 08:31:49;;;;;;;25.80;10.05;;;;;;;;;;5077717;28;20041;-47
2021/01/09 08:34:16;;;;;;;19.88;9.10;;;;;;;;;;5070397;28;20107;-48
2021/01/09 08:36:42;;;;;;;17.30;8.02;;;;;;;;;;5083563;28;20085;-48
2021/01/09 08:39:08;;;;;;;18.27;8.77;;;;;;;;;;5077893;28;20050;-48
2021/01/09 08:41:37;;;;;;;38.47;13.05;;;;;;;;;;5075936;28;20032;-48
2021/01/09 08:44:10;;;;;;;31.40;12.98;;;;;;;;;;5068440;28;20536;-50
2021/01/09 08:46:38;;;;;;;24.95;11.52;;;;;;;;;;5081128;28;20078;-47
2021/01/09 08:49:05;;;;;;;17.88;8.80;;;;;;;;;;5065270;28;20503;-50
2021/01/09 08:51:32;;;;;;;20.48;9.45;;;;;;;;;;5084681;28;20077;-50
2021/01/09 08:54:00;;;;;;;19.73;8.57;;;;;;;;;;5084126;28;20024;-48
2021/01/09 08:56:28;;;;;;;16.50;7.68;;;;;;;;;;5084696;28;20421;-51
2021/01/09 08:58:54;;;;;;;24.83;10.25;;;;;;;;;;5084356;28;20020;-48
2021/01/09 09:01:28;;;;;;;38.28;14.93;;;;;;;;;;5083562;28;20055;-53
2021/01/09 09:03:56;;;;;;;31.75;12.85;;;;;;;;;;5086970;28;20494;-49
2021/01/09 09:06:23;;;;;;;41.03;15.00;;;;;;;;;;5085474;28;20024;-48
2021/01/09 09:08:49;;;;;;;41.30;15.32;;;;;;;;;;5083356;28;20413;-48
2021/01/09 09:11:16;;;;;;;41.97;15.68;;;;;;;;;;5082190;28;20073;-51
2021/01/09 09:13:42;;;;;;;36.17;12.40;;;;;;;;;;5083795;28;20097;-50
2021/01/09 09:16:34;;;;;;;27.73;10.98;;;;;;;;;;5081507;28;20020;-53
2021/01/09 09:19:09;;;;;;;22.85;9.23;;;;;;;;;;5078957;28;20040;-49
2021/01/09 09:21:37;;;;;;;20.45;8.73;;;;;;;;;;5084761;28;20032;-51
2021/01/09 09:24:03;;;;;;;14.57;8.07;;;;;;;;;;5084198;28;20032;-49
2021/01/09 09:26:32;;;;;;;15.98;8.20;;;;;;;;;;5086010;28;20028;-50
2021/01/09 09:29:02;;;;;;;17.58;8.73;;;;;;;;;;5085827;28;20035;-49
2021/01/09 09:31:32;;;;;;;17.48;7.93;;;;;;;;;;5085626;28;20571;-51
2021/01/09 09:34:09;;;;;;;15.88;7.85;;;;;;;;;;5072990;28;20104;-50
2021/01/09 09:36:39;;;;;;;15.07;8.43;;;;;;;;;;5084799;28;20016;-49
2021/01/09 09:39:13;;;;;;;14.23;7.78;;;;;;;;;;5085606;28;20028;-52
2021/01/09 09:41:51;;;;;;;13.20;7.43;;;;;;;;;;5084575;28;20066;-49
2021/01/09 09:44:18;;;;;;;11.05;6.65;;;;;;;;;;5083429;28;20550;-49
2021/01/09 09:46:44;;;;;;;14.05;6.97;;;;;;;;;;5084018;28;20020;-49
2021/01/09 09:49:12;;;;;;;14.35;7.22;;;;;;;;;;5082907;28;20510;-51
2021/01/09 09:51:38;;;;;;;13.95;7.70;;;;;;;;;;5083637;28;20461;-52
2021/01/09 09:54:04;;;;;;;11.77;6.90;;;;;;;;;;5083881;28;20506;-50
2021/01/09 09:56:37;;;;;;;10.07;6.00;;;;;;;;;;5083049;28;20347;-51
2021/01/09 09:59:08;;;;;;;10.02;6.00;;;;;;;;;;5085628;28;20405;-48
2021/01/09 10:01:34;;;;;;;14.70;7.05;;;;;;;;;;5084636;28;20494;-48
2021/01/09 10:04:02;;;;;;;11.02;7.18;;;;;;;;;;5083672;28;20055;-49
2021/01/09 10:06:35;;;;;;;12.60;7.90;;;;;;;;;;5083723;28;20354;-52
2021/01/09 10:09:10;;;;;;;14.35;7.68;;;;;;;;;;5083646;28;20020;-53
2021/01/09 10:11:36;;;;;;;13.05;7.18;;;;;;;;;;5083846;28;20065;-52
2021/01/09 10:14:03;;;;;;;12.23;6.72;;;;;;;;;;5083131;28;20056;-48
2021/01/09 10:16:30;;;;;;;12.00;7.18;;;;;;;;;;5083505;28;20073;-48
2021/01/09 10:18:57;;;;;;;14.13;7.78;;;;;;;;;;5084567;28;20406;-49
2021/01/09 10:21:29;;;;;;;14.27;7.22;;;;;;;;;;5085836;28;20024;-50
2021/01/09 10:23:59;;;;;;;13.38;7.68;;;;;;;;;;5088054;28;20020;-49
2021/01/09 10:26:35;;;;;;;14.13;7.97;;;;;;;;;;5087785;28;20463;-51
2021/01/09 10:29:03;;;;;;;16.80;7.93;;;;;;;;;;5087260;28;20070;-52
2021/01/09 10:31:29;;;;;;;19.98;10.05;;;;;;;;;;5086251;28;20050;-49
2021/01/09 10:33:56;;;;;;;19.88;9.98;;;;;;;;;;5087614;28;20095;-48
2021/01/09 10:36:29;;;;;;;17.23;9.20;;;;;;;;;;5085969;28;20468;-51
2021/01/09 10:38:57;;;;;;;21.50;9.60;;;;;;;;;;5086858;28;20487;-48
2021/01/09 10:41:23;;;;;;;18.73;10.13;;;;;;;;;;5086518;28;20651;-52
2021/01/09 10:43:49;;;;;;;28.38;11.95;;;;;;;;;;5086886;28;20020;-51
2021/01/09 10:46:22;;;;;;;25.65;11.52;;;;;;;;;;5086094;28;20027;-49
2021/01/09 10:48:48;;;;;;;24.20;10.85;;;;;;;;;;5086647;28;20028;-50
2021/01/09 10:51:16;;;;;;;21.08;10.30;;;;;;;;;;5086474;28;20032;-49
2021/01/09 10:53:42;;;;;;;17.63;10.18;;;;;;;;;;5087306;28;20043;-50
2021/01/09 10:56:08;;;;;;;17.38;9.35;;;;;;;;;;5087306;28;20101;-52
2021/01/09 10:58:34;;;;;;;17.50;9.20;;;;;;;;;;5085056;28;20544;-49
2021/01/09 11:01:01;;;;;;;13.77;7.72;;;;;;;;;;5085077;28;20035;-50
2021/01/09 11:03:27;;;;;;;16.00;7.80;;;;;;;;;;5086202;28;20115;-52
2021/01/09 11:05:53;;;;;;;9.98;6.30;;;;;;;;;;5085866;28;20135;-49
2021/01/09 11:08:19;;;;;;;16.40;7.40;;;;;;;;;;5086012;28;20020;-52
2021/01/09 11:10:45;;;;;;;15.50;7.57;;;;;;;;;;5086928;28;20032;-51
2021/01/09 11:13:11;;;;;;;15.95;7.90;;;;;;;;;;5078714;28;20784;-51
2021/01/09 11:15:37;;;;;;;15.18;8.10;;;;;;;;;;5087593;28;20513;-49
2021/01/09 11:18:03;;;;;;;15.00;8.13;;;;;;;;;;5087678;28;20111;-50
2021/01/09 11:20:29;;;;;;;12.73;6.75;;;;;;;;;;5084189;28;20024;-51
2021/01/09 11:22:55;;;;;;;15.52;8.43;;;;;;;;;;5081191;28;20036;-52
2021/01/09 11:25:21;;;;;;;16.67;8.50;;;;;;;;;;5083176;28;20027;-50
2021/01/09 11:27:47;;;;;;;16.27;8.85;;;;;;;;;;5085718;28;20024;-50
2021/01/09 11:30:14;;;;;;;15.68;8.15;;;;;;;;;;5068154;28;20379;-49
2021/01/09 11:32:40;;;;;;;13.88;7.78;;;;;;;;;;5073325;28;20032;-51
2021/01/09 11:35:06;;;;;;;16.52;8.18;;;;;;;;;;5086510;28;20028;-48
2021/01/09 11:37:32;;;;;;;11.68;6.63;;;;;;;;;;5084475;28;20063;-49
2021/01/09 11:39:58;;;;;;;14.10;8.18;;;;;;;;;;5084978;28;20028;-52
2021/01/09 11:42:24;;;;;;;14.52;8.65;;;;;;;;;;5085580;28;20502;-47
2021/01/09 11:44:51;;;;;;;18.30;9.73;;;;;;;;;;5085354;28;20048;-48
2021/01/09 11:47:17;;;;;;;24.55;10.63;;;;;;;;;;5083810;28;20027;-51
2021/01/09 11:49:43;;;;;;;36.50;15.20;;;;;;;;;;5085140;28;20036;-52
2021/01/09 11:52:09;;;;;;;35.38;13.43;;;;;;;;;;5086306;28;20512;-48
2021/01/09 11:54:35;;;;;;;25.52;11.23;;;;;;;;;;5086267;28;20037;-52
2021/01/09 11:57:01;;;;;;;21.63;10.10;;;;;;;;;;5086290;28;20032;-50
2021/01/09 11:59:28;;;;;;;21.00;9.45;;;;;;;;;;5086779;28;20105;-51
2021/01/09 12:01:54;;;;;;;25.92;12.05;;;;;;;;;;5086909;28;20034;-51
2021/01/09 12:04:20;;;;;;;24.52;11.27;;;;;;;;;;5085380;28;20028;-52
2021/01/09 12:06:46;;;;;;;22.83;10.50;;;;;;;;;;5084069;28;20028;-48
2021/01/09 12:09:12;;;;;;;21.05;10.88;;;;;;;;;;5085251;28;20485;-50
2021/01/09 12:11:38;;;;;;;24.90;12.40;;;;;;;;;;5086570;28;20043;-50
2021/01/09 12:14:06;;;;;;;33.20;15.48;;;;;;;;;;5085368;28;20501;-47
2021/01/09 12:16:32;;;;;;;34.42;16.35;;;;;;;;;;5078401;28;20020;-47
2021/01/09 12:18:59;;;;;;;27.80;13.45;;;;;;;;;;5086183;28;20035;-46
2021/01/09 12:21:28;;;;;;;29.77;15.13;;;;;;;;;;5081047;28;20024;-47
2021/01/09 12:23:55;;;;;;;29.80;15.23;;;;;;;;;;5085325;28;20533;-48
2021/01/09 12:26:22;;;;;;;26.65;13.15;;;;;;;;;;5085744;28;20030;-47
2021/01/09 12:28:48;;;;;;;27.17;12.63;;;;;;;;;;5084617;28;20104;-47
2021/01/09 12:31:15;;;;;;;25.90;12.25;;;;;;;;;;5067429;28;20085;-47
2021/01/09 12:33:41;;;;;;;23.35;11.20;;;;;;;;;;5067131;28;20033;-47
2021/01/09 12:36:08;;;;;;;22.95;11.88;;;;;;;;;;5085987;28;20024;-49
2021/01/09 12:38:34;;;;;;;21.05;11.10;;;;;;;;;;5085949;28;20040;-49
2021/01/09 12:41:00;;;;;;;23.65;10.95;;;;;;;;;;5085402;28;20435;-47
2021/01/09 12:43:26;;;;;;;17.10;9.43;;;;;;;;;;5085383;28;20063;-50
2021/01/09 12:45:54;;;;;;;16.25;8.45;;;;;;;;;;5085179;28;20080;-47
2021/01/09 12:48:22;;;;;;;21.67;10.55;;;;;;;;;;5085791;28;20020;-47
2021/01/09 12:50:49;;;;;;;17.98;9.73;;;;;;;;;;5085955;28;20028;-48
2021/01/09 12:53:15;;;;;;;18.55;9.23;;;;;;;;;;5085556;28;20062;-48
2021/01/09 12:55:41;;;;;;;12.88;7.57;;;;;;;;;;5085661;28;20081;-51
2021/01/09 12:58:07;;;;;;;15.88;7.97;;;;;;;;;;5085529;28;20107;-47
2021/01/09 13:00:33;;;;;;;16.40;9.80;;;;;;;;;;5085691;28;20024;-48
2021/01/09 13:02:59;;;;;;;15.82;8.77;;;;;;;;;;5085511;28;20470;-50
2021/01/09 13:05:25;;;;;;;17.50;9.10;;;;;;;;;;5084654;28;20020;-48
2021/01/09 13:07:51;;;;;;;14.43;8.07;;;;;;;;;;5085528;28;20043;-48
2021/01/09 13:10:18;;;;;;;12.23;6.72;;;;;;;;;;5085304;28;20021;-49
2021/01/09 13:12:44;;;;;;;13.30;7.30;;;;;;;;;;5086122;28;20032;-51
2021/01/09 13:15:10;;;;;;;12.95;7.75;;;;;;;;;;5085333;28;20043;-50
2021/01/09 13:17:36;;;;;;;13.55;7.72;;;;;;;;;;5085426;28;20069;-51
2021/01/09 13:20:03;;;;;;;12.90;7.55;;;;;;;;;;5085527;28;20028;-47
2021/01/09 13:22:29;;;;;;;14.93;8.05;;;;;;;;;;5085306;28;20111;-48
2021/01/09 13:24:55;;;;;;;14.20;8.35;;;;;;;;;;5085284;28;20482;-51
2021/01/09 13:27:21;;;;;;;13.70;7.38;;;;;;;;;;5085104;28;20102;-47
2021/01/09 13:29:47;;;;;;;15.25;7.80;;;;;;;;;;5085010;28;20185;-51
2021/01/09 13:32:13;;;;;;;17.00;8.43;;;;;;;;;;5085571;28;20584;-49
2021/01/09 13:34:40;;;;;;;15.77;8.55;;;;;;;;;;5085435;28;20425;-48
2021/01/09 13:37:08;;;;;;;18.73;9.93;;;;;;;;;;5085220;28;20028;-49
2021/01/09 13:39:34;;;;;;;16.05;8.60;;;;;;;;;;5085266;28;20027;-49
2021/01/09 13:42:00;;;;;;;16.00;8.15;;;;;;;;;;5084529;28;20072;-48
2021/01/09 13:44:27;;;;;;;19.70;10.07;;;;;;;;;;5084847;28;20386;-48
2021/01/09 13:46:53;;;;;;;19.08;10.90;;;;;;;;;;5083485;28;20039;-50
2021/01/09 13:49:19;;;;;;;19.42;9.80;;;;;;;;;;5084200;28;20020;-49
2021/01/09 13:51:45;;;;;;;18.02;9.43;;;;;;;;;;5081484;28;20378;-51
2021/01/09 13:54:11;;;;;;;19.48;9.45;;;;;;;;;;5080582;28;20031;-48
2021/01/09 13:56:40;;;;;;;17.35;9.43;;;;;;;;;;5087402;28;20470;-52
2021/01/09 13:59:07;;;;;;;15.10;8.48;;;;;;;;;;5088550;28;20026;-48
2021/01/09 14:01:34;;;;;;;13.27;7.60;;;;;;;;;;5088341;28;20028;-51
2021/01/09 14:04:00;;;;;;;14.82;9.05;;;;;;;;;;5088298;28;20794;-49
2021/01/09 14:06:27;;;;;;;13.35;7.80;;;;;;;;;;5086752;28;20077;-48
2021/01/09 14:08:53;;;;;;;17.30;9.20;;;;;;;;;;5088179;28;20097;-51
2021/01/09 14:11:24;;;;;;;16.27;9.07;;;;;;;;;;5087808;28;20104;-54
2021/01/09 14:13:51;;;;;;;14.57;7.38;;;;;;;;;;5088828;28;20102;-52
2021/01/09 14:16:22;;;;;;;12.60;7.13;;;;;;;;;;5087642;28;20028;-47
2021/01/09 14:18:49;;;;;;;13.98;7.55;;;;;;;;;;5087571;28;20032;-50
2021/01/09 14:21:17;;;;;;;14.00;7.80;;;;;;;;;;5088631;28;20055;-48
2021/01/09 14:23:43;;;;;;;12.80;7.90;;;;;;;;;;5089003;28;20050;-47
2021/01/09 14:26:09;;;;;;;15.70;8.40;;;;;;;;;;5086660;28;20052;-49
2021/01/09 14:28:35;;;;;;;17.88;9.52;;;;;;;;;;5088361;28;20024;-50
2021/01/09 14:31:01;;;;;;;19.35;9.23;;;;;;;;;;5087386;28;20027;-47
2021/01/09 14:33:27;;;;;;;15.60;8.60;;;;;;;;;;5068203;28;20025;-47